createdAt,value
2022-08-17T00:01:51.617Z,24.45
2022-08-17T00:04:24.652Z,23.65
2022-08-17T00:06:57.349Z,21.33
2022-08-17T00:09:29.011Z,26.30
2022-08-17T00:12:34.743Z,26.90
2022-08-17T00:14:54.008Z,24.85
2022-08-17T00:17:25.701Z,23.33
2022-08-17T00:19:57.397Z,23.52
2022-08-17T00:22:33.616Z,24.67
2022-08-17T00:25:14.194Z,25.05
2022-08-17T00:27:46.295Z,22.70
2022-08-17T00:30:18.032Z,21.63
2022-08-17T00:33:11.959Z,21.45
2022-08-17T00:35:42.573Z,25.30
2022-08-17T00:38:14.266Z,22.35
2022-08-17T00:40:48.395Z,23.42
2022-08-17T00:43:26.023Z,21.60
2022-08-17T00:45:58.517Z,23.23
2022-08-17T00:48:30.864Z,25.00
2022-08-17T00:51:37.943Z,22.67
2022-08-17T00:54:16.245Z,23.20
2022-08-17T00:56:51.307Z,24.83
2022-08-17T00:59:24.581Z,24.85
2022-08-17T01:01:56.357Z,26.08
2022-08-17T01:04:28.118Z,26.38
2022-08-17T01:07:00.264Z,25.08
2022-08-17T01:09:31.938Z,24.27
2022-08-17T01:12:06.345Z,25.33
2022-08-17T01:14:40.437Z,29.02
2022-08-17T01:17:12.316Z,24.27
2022-08-17T01:19:44.003Z,24.35
2022-08-17T01:22:35.232Z,22.48
2022-08-17T01:25:08.049Z,25.35
2022-08-17T01:27:39.709Z,24.10
2022-08-17T01:30:57.284Z,24.00
2022-08-17T01:33:04.403Z,24.15
2022-08-17T01:35:36.391Z,23.90
2022-08-17T01:38:09.590Z,25.35
2022-08-17T01:40:57.587Z,25.08
2022-08-17T01:43:40.071Z,24.30
2022-08-17T01:46:20.183Z,26.60
2022-08-17T01:48:52.607Z,25.35
2022-08-17T01:51:32.719Z,24.05
2022-08-17T01:54:07.667Z,25.52
2022-08-17T01:56:41.405Z,25.75
2022-08-17T01:59:14.019Z,24.90
2022-08-17T02:01:47.392Z,23.75
2022-08-17T02:04:19.318Z,24.83
2022-08-17T02:06:53.422Z,30.52
2022-08-17T02:09:29.773Z,24.30
2022-08-17T02:12:05.749Z,24.63
2022-08-17T02:14:55.422Z,25.23
2022-08-17T02:17:27.094Z,25.05
2022-08-17T02:19:58.854Z,22.42
2022-08-17T02:22:31.070Z,26.35
2022-08-17T02:25:02.957Z,25.02
2022-08-17T02:27:35.125Z,28.70
2022-08-17T02:30:59.954Z,24.70
2022-08-17T02:32:59.538Z,23.73
2022-08-17T02:35:37.395Z,24.80
2022-08-17T02:38:09.813Z,25.15
2022-08-17T02:40:41.441Z,25.42
2022-08-17T02:43:13.780Z,25.20
2022-08-17T02:45:45.489Z,23.48
2022-08-17T02:48:17.349Z,24.08
2022-08-17T02:51:03.025Z,23.25
2022-08-17T02:53:36.257Z,23.65
2022-08-17T02:56:08.033Z,28.02
2022-08-17T02:58:39.724Z,23.02
2022-08-17T03:01:12.767Z,28.27
2022-08-17T03:03:45.244Z,23.98
2022-08-17T03:06:17.268Z,27.02
2022-08-17T03:08:48.914Z,26.02
2022-08-17T03:11:20.594Z,28.90
2022-08-17T03:13:52.410Z,30.42
2022-08-17T03:16:24.310Z,28.02
2022-08-17T03:18:55.954Z,25.95
2022-08-17T03:21:28.022Z,23.77
2022-08-17T03:23:59.655Z,25.13
2022-08-17T03:26:32.392Z,25.55
2022-08-17T03:29:04.061Z,25.33
2022-08-17T03:31:37.194Z,23.95
2022-08-17T03:34:09.014Z,22.73
2022-08-17T03:36:40.670Z,26.08
2022-08-17T03:39:12.368Z,20.63
2022-08-17T03:41:44.070Z,19.45
2022-08-17T03:44:15.738Z,23.10
2022-08-17T03:47:06.089Z,22.67
2022-08-17T03:49:56.335Z,23.65
2022-08-17T03:52:46.711Z,24.80
2022-08-17T03:55:42.265Z,23.58
2022-08-17T03:58:13.926Z,23.90
2022-08-17T04:00:45.767Z,22.77
2022-08-17T04:03:17.538Z,22.50
2022-08-17T04:05:49.297Z,19.33
2022-08-17T04:08:21.070Z,18.85
2022-08-17T04:10:52.732Z,13.85
2022-08-17T04:13:25.568Z,18.23
2022-08-17T04:15:59.259Z,19.75
2022-08-17T04:18:30.955Z,20.65
2022-08-17T04:25:44.021Z,23.98
2022-08-17T04:28:16.645Z,26.45
2022-08-17T04:30:48.353Z,25.08
2022-08-17T04:33:21.985Z,23.92
2022-08-17T04:35:55.758Z,27.55
2022-08-17T04:38:29.893Z,27.75
2022-08-17T04:41:20.223Z,23.98
2022-08-17T04:43:55.109Z,27.08
2022-08-17T04:46:32.862Z,24.30
2022-08-17T04:49:06.514Z,24.50
2022-08-17T04:51:54.438Z,24.92
2022-08-17T04:54:28.058Z,22.65
2022-08-17T04:56:59.815Z,24.73
2022-08-17T04:59:31.485Z,22.63
2022-08-17T05:02:03.163Z,25.48
2022-08-17T05:04:35.582Z,22.45
2022-08-17T05:07:07.777Z,21.65
2022-08-17T05:09:39.573Z,21.85
2022-08-17T05:12:11.315Z,22.00
2022-08-17T05:14:43.052Z,23.65
2022-08-17T05:17:14.969Z,23.20
2022-08-17T05:19:51.775Z,23.05
2022-08-17T05:22:23.711Z,21.70
2022-08-17T05:24:55.735Z,23.13
2022-08-17T05:27:29.308Z,21.80
2022-08-17T05:30:07.865Z,21.85
2022-08-17T05:32:40.349Z,22.02
2022-08-17T05:35:12.248Z,19.52
2022-08-17T05:37:44.397Z,22.00
2022-08-17T05:40:16.298Z,19.73
2022-08-17T05:42:48.614Z,21.20
2022-08-17T05:45:46.058Z,19.90
2022-08-17T05:48:13.180Z,32.25
2022-08-17T05:50:44.772Z,19.65
2022-08-17T05:53:55.121Z,20.73
2022-08-17T05:56:46.894Z,19.90
2022-08-17T05:59:31.023Z,19.08
2022-08-17T06:02:08.554Z,18.63
2022-08-17T06:05:01.541Z,19.02
2022-08-17T06:07:58.021Z,18.70
2022-08-17T06:10:40.086Z,19.40
2022-08-17T06:13:17.669Z,18.17
2022-08-17T06:16:01.991Z,18.10
2022-08-17T06:18:41.477Z,17.95
2022-08-17T06:21:14.874Z,17.85
2022-08-17T06:23:50.041Z,17.38
2022-08-17T06:26:25.909Z,17.13
2022-08-17T06:29:27.147Z,18.33
2022-08-17T06:31:58.915Z,16.80
2022-08-17T06:34:30.590Z,16.05
2022-08-17T06:37:36.390Z,16.58
2022-08-17T06:40:26.517Z,16.08
2022-08-17T06:43:14.807Z,15.20
2022-08-17T06:46:07.161Z,16.75
2022-08-17T06:49:01.520Z,13.75
2022-08-17T06:51:39.549Z,15.02
2022-08-17T06:54:21.980Z,14.82
2022-08-17T06:56:59.645Z,15.77
2022-08-17T06:59:53.200Z,16.55
2022-08-17T07:02:56.236Z,13.50
2022-08-17T07:05:34.526Z,16.52
2022-08-17T07:08:35.580Z,13.65
2022-08-17T07:11:13.127Z,13.80
2022-08-17T07:14:12.803Z,12.68
2022-08-17T07:16:49.039Z,13.77
2022-08-17T07:19:22.591Z,13.85
2022-08-17T07:22:18.785Z,15.15
2022-08-17T07:24:51.585Z,12.07
2022-08-17T07:27:27.660Z,11.82
2022-08-17T07:30:11.119Z,13.75
2022-08-17T07:32:47.020Z,12.60
2022-08-17T07:35:44.092Z,12.38
2022-08-17T07:38:25.626Z,13.38
2022-08-17T07:40:58.909Z,15.30
2022-08-17T07:43:31.837Z,17.00
2022-08-17T07:46:29.783Z,12.30
2022-08-17T07:49:03.239Z,12.23
2022-08-17T07:51:45.713Z,11.85
2022-08-17T07:54:23.556Z,12.50
2022-08-17T07:57:29.797Z,12.20
2022-08-17T08:00:01.771Z,13.13
2022-08-17T08:02:40.847Z,11.73
2022-08-17T08:05:49.151Z,10.00
2022-08-17T08:08:26.323Z,12.68
2022-08-17T08:11:10.335Z,12.07
2022-08-17T08:13:45.103Z,11.20
2022-08-17T08:16:27.074Z,12.50
2022-08-17T08:19:00.765Z,10.43
2022-08-17T08:21:56.453Z,13.15
2022-08-17T08:24:31.207Z,11.85
2022-08-17T08:27:20.177Z,10.68
2022-08-17T08:30:00.604Z,10.75
2022-08-17T08:32:57.658Z,10.50
2022-08-17T08:35:50.199Z,12.30
2022-08-17T08:38:49.800Z,9.85
2022-08-17T08:41:26.535Z,9.82
2022-08-17T08:44:10.324Z,10.02
2022-08-17T08:47:04.932Z,10.35
2022-08-17T08:50:36.954Z,10.43
2022-08-17T08:53:24.486Z,10.18
2022-08-17T08:56:10.992Z,9.75
2022-08-17T08:58:56.817Z,10.85
2022-08-17T09:01:31.906Z,10.45
2022-08-17T09:04:21.381Z,9.45
2022-08-17T09:07:01.065Z,10.05
2022-08-17T09:09:58.979Z,9.27
2022-08-17T09:12:35.474Z,8.93
2022-08-17T09:15:28.811Z,10.07
2022-08-17T09:19:02.431Z,12.70
2022-08-17T09:21:48.077Z,9.70
2022-08-17T09:24:33.788Z,9.35
2022-08-17T09:27:13.884Z,9.25
2022-08-17T09:29:51.556Z,12.45
2022-08-17T09:33:02.193Z,11.80
2022-08-17T09:35:39.719Z,9.32
2022-08-17T09:38:33.300Z,11.93
2022-08-17T09:41:10.008Z,12.88
2022-08-17T09:43:54.172Z,9.30
2022-08-17T09:46:30.219Z,9.40
2022-08-17T09:49:32.010Z,10.60
2022-08-17T09:52:09.426Z,9.57
2022-08-17T09:54:41.236Z,10.52
2022-08-17T09:57:37.671Z,12.27
2022-08-17T10:00:18.882Z,10.13
2022-08-17T10:03:20.195Z,10.35
2022-08-17T10:06:00.081Z,11.60
2022-08-17T10:09:17.478Z,10.18
2022-08-17T10:12:17.302Z,9.15
2022-08-17T10:15:09.576Z,10.35
2022-08-17T10:18:12.288Z,10.27
2022-08-17T10:21:22.569Z,10.40
2022-08-17T10:24:40.991Z,11.82
2022-08-17T10:27:52.776Z,10.13
2022-08-17T10:30:26.788Z,15.60
2022-08-17T10:33:03.595Z,10.60
2022-08-17T10:35:37.713Z,9.75
2022-08-17T10:38:28.218Z,9.80
2022-08-17T10:41:20.206Z,10.55
2022-08-17T10:44:38.043Z,9.98
2022-08-17T10:47:12.738Z,10.95
2022-08-17T10:49:54.198Z,10.43
2022-08-17T10:52:30.499Z,10.02
2022-08-17T10:55:06.250Z,10.48
2022-08-17T10:57:49.634Z,10.23
2022-08-17T11:00:26.967Z,10.02
2022-08-17T11:02:59.480Z,11.40
2022-08-17T11:05:54.029Z,11.23
2022-08-17T11:08:37.679Z,9.35
2022-08-17T11:11:35.843Z,11.07
2022-08-17T11:14:29.795Z,16.13
2022-08-17T11:17:41.430Z,11.73
2022-08-17T11:20:32.085Z,10.40
2022-08-17T11:23:10.210Z,9.52
2022-08-17T11:25:45.065Z,11.32
2022-08-17T11:28:28.153Z,9.43
2022-08-17T11:31:03.522Z,9.68
2022-08-17T11:33:38.201Z,10.57
2022-08-17T11:36:26.602Z,10.25
2022-08-17T11:39:19.625Z,10.05
2022-08-17T11:41:58.516Z,9.05
2022-08-17T11:44:56.468Z,10.20
2022-08-17T11:48:15.994Z,10.38
2022-08-17T11:51:24.576Z,10.77
2022-08-17T11:54:21.667Z,10.75
2022-08-17T11:56:51.004Z,11.93
2022-08-17T11:59:36.393Z,10.18
2022-08-17T12:02:19.910Z,10.93
2022-08-17T12:05:17.013Z,12.32
2022-08-17T12:08:10.713Z,10.50
2022-08-17T12:11:10.076Z,9.77
2022-08-17T12:13:47.225Z,15.52
2022-08-17T12:16:20.174Z,11.57
2022-08-17T12:18:58.568Z,9.30
2022-08-17T12:21:39.139Z,10.88
2022-08-17T12:24:32.219Z,10.40
2022-08-17T12:27:04.882Z,10.98
2022-08-17T12:29:38.735Z,10.10
2022-08-17T12:32:16.628Z,9.55
2022-08-17T12:34:49.208Z,9.70
2022-08-17T12:37:25.540Z,10.40
2022-08-17T12:40:00.274Z,10.60
2022-08-17T12:42:34.869Z,10.20
2022-08-17T12:45:08.082Z,12.07
2022-08-17T12:47:39.714Z,10.13
2022-08-17T12:50:28.212Z,9.95
2022-08-17T12:53:02.658Z,10.90
2022-08-17T12:55:36.673Z,10.05
2022-08-17T12:58:14.398Z,8.60
2022-08-17T13:00:55.393Z,8.80
2022-08-17T13:03:36.365Z,9.25
2022-08-17T13:06:10.072Z,11.32
2022-08-17T13:08:44.522Z,10.52
2022-08-17T13:11:19.145Z,10.40
2022-08-17T13:13:56.054Z,10.73
2022-08-17T13:16:29.803Z,12.95
2022-08-17T13:19:18.983Z,12.95
2022-08-17T13:22:11.520Z,10.90
2022-08-17T13:25:01.012Z,11.88
2022-08-17T13:27:32.725Z,10.70
2022-08-17T13:30:07.873Z,11.27
2022-08-17T13:32:43.877Z,12.20
2022-08-17T13:35:39.832Z,10.80
2022-08-17T13:38:36.538Z,10.18
2022-08-17T13:41:08.905Z,10.85
2022-08-17T13:43:45.770Z,12.50
2022-08-17T13:46:26.580Z,10.25
2022-08-17T13:49:03.654Z,11.02
2022-08-17T13:51:45.840Z,10.27
2022-08-17T13:54:26.555Z,10.30
2022-08-17T13:57:05.502Z,12.68
2022-08-17T13:59:54.804Z,10.25
2022-08-17T14:02:28.456Z,14.27
2022-08-17T14:05:02.145Z,11.13
2022-08-17T14:07:38.621Z,11.40
2022-08-17T14:10:15.748Z,10.90
2022-08-17T14:12:47.738Z,10.05
2022-08-17T14:15:23.442Z,9.93
2022-08-17T14:18:17.801Z,9.57
2022-08-17T14:20:49.489Z,10.38
2022-08-17T14:23:21.121Z,9.48
2022-08-17T14:25:52.825Z,10.65
2022-08-17T14:28:24.579Z,10.38
2022-08-17T14:31:00.713Z,10.02
2022-08-17T14:33:33.559Z,8.25
2022-08-17T14:36:05.193Z,9.30
2022-08-17T14:38:37.930Z,9.18
2022-08-17T14:41:09.995Z,8.98
2022-08-17T14:43:41.618Z,11.13
2022-08-17T14:46:13.368Z,10.77
2022-08-17T14:48:45.007Z,11.05
2022-08-17T14:51:16.749Z,9.13
2022-08-17T14:53:49.162Z,9.68
2022-08-17T14:56:20.881Z,9.43
2022-08-17T14:58:52.510Z,9.88
2022-08-17T15:01:24.643Z,9.77
2022-08-17T15:03:56.710Z,9.75
2022-08-17T15:06:28.347Z,9.40
2022-08-17T15:09:00.385Z,9.68
2022-08-17T15:11:32.307Z,9.10
2022-08-17T15:14:04.041Z,9.20
2022-08-17T15:16:36.032Z,12.10
2022-08-17T15:19:07.996Z,10.23
2022-08-17T15:21:39.954Z,9.52
2022-08-17T15:24:11.614Z,10.32
2022-08-17T15:26:43.275Z,9.48
2022-08-17T15:29:15.037Z,9.57
2022-08-17T15:31:46.747Z,9.88
2022-08-17T15:34:19.043Z,10.05
2022-08-17T15:36:50.942Z,10.10
2022-08-17T15:39:22.616Z,9.85
2022-08-17T15:41:58.659Z,10.50
2022-08-17T15:44:34.852Z,9.55
2022-08-17T15:47:06.928Z,9.95
2022-08-17T15:49:41.970Z,8.48
2022-08-17T15:52:20.571Z,8.95
2022-08-17T15:54:59.632Z,9.18
2022-08-17T15:57:31.256Z,9.43
2022-08-17T16:00:07.517Z,9.27
2022-08-17T16:03:45.667Z,8.30
2022-08-17T16:05:35.884Z,9.80
2022-08-17T16:08:08.922Z,8.55
2022-08-17T16:10:40.642Z,8.27
2022-08-17T16:13:17.475Z,9.13
2022-08-17T16:15:56.685Z,9.75
2022-08-17T16:18:31.359Z,9.50
2022-08-17T16:21:24.195Z,8.30
2022-08-17T16:24:04.581Z,9.25
2022-08-17T16:26:36.695Z,11.95
2022-08-17T16:29:08.432Z,8.27
2022-08-17T16:31:41.908Z,8.60
2022-08-17T16:34:17.580Z,8.93
2022-08-17T16:36:55.029Z,9.38
2022-08-17T16:39:29.208Z,8.98
2022-08-17T16:42:02.771Z,8.57
2022-08-17T16:44:34.657Z,8.40
2022-08-17T16:47:07.471Z,9.45
2022-08-17T16:49:39.308Z,9.00
2022-08-17T16:52:11.392Z,10.38
2022-08-17T16:54:44.372Z,8.60
2022-08-17T16:57:17.689Z,8.57
2022-08-17T16:59:51.494Z,8.30
2022-08-17T17:02:26.150Z,8.27
2022-08-17T17:05:22.151Z,8.70
2022-08-17T17:08:19.585Z,8.50
2022-08-17T17:10:55.246Z,8.70
2022-08-17T17:13:41.238Z,7.65
2022-08-17T17:16:26.399Z,8.40
2022-08-17T17:19:08.189Z,7.88
2022-08-17T17:21:43.317Z,8.40
2022-08-17T17:24:19.138Z,8.98
2022-08-17T17:27:07.055Z,8.35
2022-08-17T17:29:55.995Z,9.27
2022-08-17T17:32:40.265Z,8.70
2022-08-17T17:35:34.997Z,11.30
2022-08-17T17:38:12.734Z,9.65
2022-08-17T17:40:47.625Z,8.43
2022-08-17T17:43:38.306Z,8.85
2022-08-17T17:46:27.997Z,9.05
2022-08-17T17:49:00.629Z,10.07
2022-08-17T17:52:07.596Z,9.32
2022-08-17T17:55:04.163Z,9.00
2022-08-17T17:57:57.497Z,8.65
2022-08-17T18:00:54.137Z,9.90
2022-08-17T18:03:41.146Z,10.40
2022-08-17T18:06:30.009Z,10.00
2022-08-17T18:09:18.033Z,8.45
2022-08-17T18:12:19.887Z,9.30
2022-08-17T18:15:37.368Z,10.93
2022-08-17T18:18:14.875Z,10.02
2022-08-17T18:20:53.715Z,10.05
2022-08-17T18:23:28.748Z,9.73
2022-08-17T18:26:01.904Z,8.63
2022-08-17T18:28:43.265Z,9.77
2022-08-17T18:31:14.773Z,10.15
2022-08-17T18:33:51.451Z,9.18
2022-08-17T18:36:41.214Z,10.32
2022-08-17T18:39:26.370Z,9.23
2022-08-17T18:41:59.361Z,10.40
2022-08-17T18:44:35.310Z,10.43
2022-08-17T18:47:22.036Z,10.13
2022-08-17T18:49:58.588Z,10.18
2022-08-17T18:52:32.103Z,10.23
2022-08-17T18:55:17.997Z,9.30
2022-08-17T18:57:52.404Z,11.93
2022-08-17T19:00:30.300Z,10.57
2022-08-17T19:03:03.841Z,10.23
2022-08-17T19:05:38.589Z,10.80
2022-08-17T19:08:22.566Z,9.65
2022-08-17T19:11:20.743Z,12.35
2022-08-17T19:14:10.989Z,11.60
2022-08-17T19:16:54.960Z,10.82
2022-08-17T19:19:34.190Z,12.13
2022-08-17T19:22:52.464Z,11.57
2022-08-17T19:25:29.894Z,12.30
2022-08-17T19:28:21.725Z,11.50
2022-08-17T19:30:58.066Z,13.13
2022-08-17T19:33:29.695Z,11.38
2022-08-17T19:36:10.479Z,11.23
2022-08-17T19:38:51.175Z,11.98
2022-08-17T19:41:29.480Z,11.20
2022-08-17T19:44:29.317Z,11.65
2022-08-17T19:47:36.683Z,11.35
2022-08-17T19:50:38.484Z,11.82
2022-08-17T19:53:54.239Z,11.25
2022-08-17T19:56:55.713Z,10.75
2022-08-17T20:00:05.443Z,12.70
2022-08-17T20:02:38.003Z,12.68
2022-08-17T20:05:15.600Z,12.82
2022-08-17T20:07:58.617Z,12.23
2022-08-17T20:10:39.508Z,12.02
2022-08-17T20:13:32.998Z,12.18
2022-08-17T20:16:05.722Z,13.25
2022-08-17T20:18:48.072Z,13.27
2022-08-17T20:21:32.593Z,11.68
2022-08-17T20:24:07.336Z,12.13
2022-08-17T20:27:08.111Z,12.90
2022-08-17T20:29:55.013Z,12.30
2022-08-17T20:32:35.831Z,11.65
2022-08-17T20:35:18.936Z,11.60
2022-08-17T20:38:02.305Z,11.38
2022-08-17T20:40:38.744Z,12.10
2022-08-17T20:43:32.711Z,14.15
2022-08-17T20:46:10.815Z,11.27
2022-08-17T20:48:46.863Z,10.60
2022-08-17T20:51:54.598Z,13.60
2022-08-17T20:54:50.246Z,13.85
2022-08-17T20:57:31.557Z,12.63
2022-08-17T21:00:18.212Z,13.15
2022-08-17T21:02:50.423Z,13.32
2022-08-17T21:05:57.359Z,11.27
2022-08-17T21:08:43.745Z,11.68
2022-08-17T21:11:56.989Z,12.57
2022-08-17T21:14:31.606Z,13.45
2022-08-17T21:17:29.485Z,13.27
2022-08-17T21:20:11.404Z,12.38
2022-08-17T21:22:55.841Z,12.55
2022-08-17T21:25:49.112Z,12.65
2022-08-17T21:29:00.709Z,12.02
2022-08-17T21:31:34.560Z,12.82
2022-08-17T21:34:15.715Z,13.98
2022-08-17T21:36:48.524Z,13.18
2022-08-17T21:39:23.303Z,14.10
2022-08-17T21:42:00.488Z,14.65
2022-08-17T21:44:34.923Z,15.82
2022-08-17T21:47:21.234Z,13.18
2022-08-17T21:49:53.905Z,13.52
2022-08-17T21:52:25.541Z,12.73
2022-08-17T21:54:58.368Z,14.38
2022-08-17T21:57:29.979Z,13.48
2022-08-17T22:00:02.405Z,14.45
2022-08-17T22:02:37.749Z,13.43
2022-08-17T22:05:13.459Z,13.18
2022-08-17T22:07:50.809Z,13.07
2022-08-17T22:10:43.747Z,12.65
2022-08-17T22:13:24.223Z,12.45
2022-08-17T22:16:04.195Z,12.13
2022-08-17T22:18:48.008Z,14.23
2022-08-17T22:21:25.640Z,13.95
2022-08-17T22:24:06.078Z,16.10
2022-08-17T22:27:05.086Z,14.00
2022-08-17T22:29:45.459Z,14.50
2022-08-17T22:32:37.349Z,14.63
2022-08-17T22:35:39.274Z,13.43
2022-08-17T22:38:20.092Z,14.30
2022-08-17T22:40:53.838Z,15.15
2022-08-17T22:43:28.508Z,14.63
2022-08-17T22:46:00.215Z,14.05
2022-08-17T22:48:32.681Z,16.40
2022-08-17T22:51:12.333Z,14.27
2022-08-17T22:54:11.396Z,17.42
2022-08-17T22:57:20.392Z,14.93
2022-08-17T22:59:54.052Z,14.00
2022-08-17T23:02:33.663Z,16.30
2022-08-17T23:05:15.729Z,14.65
2022-08-17T23:07:47.514Z,14.40
2022-08-17T23:10:19.348Z,14.70
2022-08-17T23:12:51.056Z,13.85
2022-08-17T23:15:23.421Z,15.45
2022-08-17T23:17:55.049Z,13.73
2022-08-17T23:20:26.700Z,18.30
2022-08-17T23:22:59.785Z,15.45
2022-08-17T23:25:32.428Z,14.25
2022-08-17T23:28:05.093Z,14.45
2022-08-17T23:30:39.549Z,15.57
2022-08-17T23:33:25.629Z,13.55
2022-08-17T23:36:00.135Z,15.80
2022-08-17T23:38:33.177Z,15.02
2022-08-17T23:41:08.786Z,14.90
2022-08-17T23:43:40.809Z,14.95
2022-08-17T23:46:12.850Z,14.40
2022-08-17T23:48:44.761Z,16.08
2022-08-17T23:51:19.054Z,13.18
2022-08-17T23:53:53.203Z,15.07
2022-08-17T23:56:25.907Z,14.15
2022-08-17T23:58:58.507Z,15.25
